createdAt,value
2023-04-17T00:00:17.636Z,12.98
2023-04-17T00:02:46.496Z,13.04
2023-04-17T00:05:16.802Z,13.13
2023-04-17T00:07:46.744Z,13.15
2023-04-17T00:10:14.930Z,13.25
2023-04-17T00:12:42.799Z,13.27
2023-04-17T00:15:11.578Z,13.35
2023-04-17T00:17:41.171Z,13.28
2023-04-17T00:20:13.587Z,13.29
2023-04-17T00:22:41.710Z,13.38
2023-04-17T00:25:13.005Z,13.45
2023-04-17T00:27:43.486Z,13.53
2023-04-17T00:30:12.357Z,13.41
2023-04-17T00:32:40.636Z,13.42
2023-04-17T00:35:10.593Z,13.48
2023-04-17T00:37:40.413Z,13.43
2023-04-17T00:40:11.617Z,13.45
2023-04-17T00:42:39.573Z,13.32
2023-04-17T00:45:11.131Z,13.22
2023-04-17T00:47:40.836Z,13.11
2023-04-17T00:50:10.458Z,13.08
2023-04-17T00:52:38.529Z,12.99
2023-04-17T00:55:08.478Z,12.97
2023-04-17T00:57:38.889Z,12.85
2023-04-17T01:00:09.603Z,12.85
2023-04-17T01:03:14.273Z,12.80
2023-04-17T01:05:43.431Z,12.87
2023-04-17T01:08:11.238Z,12.81
2023-04-17T01:10:39.059Z,12.65
2023-04-17T01:13:08.846Z,12.63
2023-04-17T01:15:38.991Z,12.51
2023-04-17T01:18:06.971Z,12.43
2023-04-17T01:20:35.348Z,12.23
2023-04-17T01:23:03.446Z,12.23
2023-04-17T01:25:33.136Z,12.23
2023-04-17T01:28:01.229Z,12.10
2023-04-17T01:30:30.491Z,12.03
2023-04-17T01:33:06.598Z,11.96
2023-04-17T01:35:34.563Z,11.88
2023-04-17T01:38:02.364Z,11.79
2023-04-17T01:40:30.342Z,11.87
2023-04-17T01:43:00.939Z,11.92
2023-04-17T01:45:29.153Z,11.90
2023-04-17T01:47:57.143Z,11.90
2023-04-17T01:50:25.197Z,12.04
2023-04-17T01:52:53.102Z,12.11
2023-04-17T01:55:20.906Z,12.16
2023-04-17T01:57:50.012Z,12.18
2023-04-17T02:00:20.715Z,12.27
2023-04-17T02:02:48.725Z,12.28
2023-04-17T02:05:16.812Z,12.25
2023-04-17T02:07:45.291Z,12.18
2023-04-17T02:10:13.093Z,12.15
2023-04-17T02:12:40.865Z,12.09
2023-04-17T02:15:10.011Z,12.09
2023-04-17T02:17:39.271Z,12.07
2023-04-17T02:20:08.945Z,11.96
2023-04-17T02:22:36.783Z,11.97
2023-04-17T02:25:05.418Z,11.96
2023-04-17T02:27:33.296Z,11.90
2023-04-17T02:30:01.109Z,11.90
2023-04-17T02:32:29.515Z,11.76
2023-04-17T02:34:58.802Z,11.71
2023-04-17T02:37:26.565Z,11.79
2023-04-17T02:39:56.031Z,11.68
2023-04-17T02:42:23.899Z,11.70
2023-04-17T02:44:52.958Z,11.70
2023-04-17T02:47:22.627Z,11.74
2023-04-17T02:49:50.969Z,11.73
2023-04-17T02:52:20.133Z,11.67
2023-04-17T02:54:48.012Z,11.61
2023-04-17T02:57:15.887Z,11.58
2023-04-17T02:59:43.726Z,11.55
2023-04-17T03:02:14.602Z,11.39
2023-04-17T03:04:43.042Z,11.38
2023-04-17T03:07:10.840Z,11.40
2023-04-17T03:09:41.000Z,11.41
2023-04-17T03:12:08.853Z,11.33
2023-04-17T03:14:36.716Z,11.32
2023-04-17T03:17:04.602Z,11.24
2023-04-17T03:19:32.385Z,11.30
2023-04-17T03:22:01.770Z,11.18
2023-04-17T03:24:31.497Z,11.10
2023-04-17T03:27:02.248Z,11.06
2023-04-17T03:29:37.618Z,11.00
2023-04-17T03:32:06.402Z,10.92
2023-04-17T03:34:34.543Z,10.99
2023-04-17T03:37:02.322Z,10.94
2023-04-17T03:39:32.288Z,10.91
2023-04-17T03:42:03.225Z,10.95
2023-04-17T03:44:31.183Z,10.86
2023-04-17T03:46:58.980Z,10.78
2023-04-17T03:49:26.904Z,10.77
2023-04-17T03:51:55.293Z,10.72
2023-04-17T03:54:23.473Z,10.80
2023-04-17T03:56:53.754Z,10.77
2023-04-17T03:59:23.645Z,10.78
2023-04-17T04:01:54.194Z,10.67
2023-04-17T04:04:24.668Z,10.81
2023-04-17T04:07:01.524Z,10.78
2023-04-17T04:09:30.377Z,10.83
2023-04-17T04:11:58.993Z,10.92
2023-04-17T04:14:28.875Z,10.77
2023-04-17T04:16:56.657Z,10.67
2023-04-17T04:19:24.563Z,10.73
2023-04-17T04:21:53.617Z,10.79
2023-04-17T04:24:25.483Z,10.76
2023-04-17T04:26:53.378Z,10.79
2023-04-17T04:29:25.542Z,10.76
2023-04-17T04:32:09.694Z,10.72
2023-04-17T04:34:44.922Z,10.70
2023-04-17T04:37:16.030Z,10.70
2023-04-17T04:39:47.197Z,10.61
2023-04-17T04:42:22.481Z,10.54
2023-04-17T04:45:11.491Z,10.51
2023-04-17T04:47:41.357Z,10.57
2023-04-17T04:50:09.895Z,10.59
2023-04-17T04:52:38.035Z,10.61
2023-04-17T04:55:26.576Z,10.62
2023-04-17T04:57:57.418Z,10.62
2023-04-17T05:00:26.430Z,10.72
2023-04-17T05:02:58.564Z,10.74
2023-04-17T05:05:27.525Z,10.75
2023-04-17T05:07:56.119Z,10.88
2023-04-17T05:10:27.384Z,10.77
2023-04-17T05:13:00.436Z,10.72
2023-04-17T05:15:28.366Z,10.73
2023-04-17T05:17:58.196Z,10.81
2023-04-17T05:20:28.731Z,10.79
2023-04-17T05:22:59.006Z,10.85
2023-04-17T05:25:27.024Z,10.83
2023-04-17T05:27:57.151Z,10.82
2023-04-17T05:30:25.340Z,10.92
2023-04-17T05:33:06.538Z,10.76
2023-04-17T05:35:44.004Z,10.68
2023-04-17T05:38:11.860Z,10.80
2023-04-17T05:40:39.669Z,10.87
2023-04-17T05:43:08.649Z,10.76
2023-04-17T05:45:38.191Z,10.80
2023-04-17T05:48:10.954Z,10.97
2023-04-17T05:50:38.956Z,11.12
2023-04-17T05:53:08.114Z,11.10
2023-04-17T05:55:41.064Z,11.06
2023-04-17T06:00:44.866Z,11.07
2023-04-17T06:03:18.167Z,11.19
2023-04-17T06:05:48.302Z,11.11
2023-04-17T06:08:16.242Z,11.29
2023-04-17T06:10:45.769Z,11.38
2023-04-17T06:13:13.835Z,11.36
2023-04-17T06:15:46.572Z,11.31
2023-04-17T06:18:17.658Z,11.30
2023-04-17T06:20:46.312Z,11.40
2023-04-17T06:23:14.113Z,11.53
2023-04-17T06:25:43.124Z,11.71
2023-04-17T06:28:10.962Z,11.79
2023-04-17T06:30:38.924Z,11.78
2023-04-17T06:33:08.496Z,11.92
2023-04-17T06:35:38.879Z,11.88
2023-04-17T06:38:18.310Z,11.97
2023-04-17T06:40:46.675Z,11.96
2023-04-17T06:43:16.258Z,12.03
2023-04-17T06:45:44.459Z,12.17
2023-04-17T06:48:12.276Z,12.18
2023-04-17T06:50:42.156Z,12.40
2023-04-17T06:53:09.966Z,12.39
2023-04-17T06:55:37.850Z,12.33
2023-04-17T06:58:07.905Z,12.38
2023-04-17T07:00:35.766Z,12.43
2023-04-17T07:03:03.761Z,12.53
2023-04-17T07:05:31.759Z,12.77
2023-04-17T07:08:00.827Z,12.36
2023-04-17T07:10:28.642Z,12.33
2023-04-17T07:12:56.509Z,12.43
2023-04-17T07:15:24.576Z,12.58
2023-04-17T07:17:52.535Z,12.51
2023-04-17T07:20:21.365Z,12.54
2023-04-17T07:22:49.840Z,12.53
2023-04-17T07:25:19.874Z,12.71
2023-04-17T07:27:47.776Z,12.84
2023-04-17T07:30:15.759Z,13.02
2023-04-17T07:33:02.746Z,13.21
2023-04-17T07:35:30.843Z,13.16
2023-04-17T07:38:01.308Z,13.15
2023-04-17T07:40:33.485Z,13.12
2023-04-17T07:43:01.318Z,13.24
2023-04-17T07:45:29.126Z,13.41
2023-04-17T07:47:57.052Z,13.49
2023-04-17T07:50:25.053Z,13.67
2023-04-17T07:52:52.948Z,13.80
2023-04-17T07:55:20.894Z,14.10
2023-04-17T07:57:51.592Z,14.20
2023-04-17T08:00:21.412Z,14.18
2023-04-17T08:02:49.442Z,14.31
2023-04-17T08:05:17.635Z,14.58
2023-04-17T08:07:45.520Z,14.70
2023-04-17T08:10:18.483Z,14.87
2023-04-17T08:12:46.363Z,15.27
2023-04-17T08:15:15.536Z,15.23
2023-04-17T08:17:43.440Z,15.67
2023-04-17T08:20:11.610Z,15.65
2023-04-17T08:22:41.153Z,15.26
2023-04-17T08:25:10.703Z,15.21
2023-04-17T08:27:40.734Z,15.47
2023-04-17T08:30:14.302Z,15.53
2023-04-17T08:32:48.918Z,15.73
2023-04-17T08:35:17.471Z,15.84
2023-04-17T08:37:48.418Z,15.95
2023-04-17T08:40:18.653Z,16.34
2023-04-17T08:42:47.899Z,16.60
2023-04-17T08:45:16.234Z,16.41
2023-04-17T08:47:45.482Z,16.20
2023-04-17T08:50:16.541Z,16.44
2023-04-17T08:52:48.126Z,16.74
2023-04-17T08:55:19.833Z,16.69
2023-04-17T08:57:59.112Z,16.87
2023-04-17T09:00:29.110Z,16.94
2023-04-17T09:03:01.080Z,16.90
2023-04-17T09:05:33.500Z,17.13
2023-04-17T09:08:12.445Z,16.99
2023-04-17T09:10:42.191Z,16.85
2023-04-17T09:13:14.377Z,16.98
2023-04-17T09:15:44.511Z,17.19
2023-04-17T09:18:25.670Z,16.97
2023-04-17T09:20:53.971Z,17.20
2023-04-17T09:23:23.315Z,17.21
2023-04-17T09:26:07.640Z,17.21
2023-04-17T09:28:36.796Z,17.30
2023-04-17T09:31:26.327Z,17.44
2023-04-17T09:34:00.460Z,17.64
2023-04-17T09:36:33.175Z,17.68
2023-04-17T09:39:04.523Z,17.65
2023-04-17T09:41:39.239Z,17.67
2023-04-17T09:44:07.466Z,17.93
2023-04-17T09:46:56.135Z,18.13
2023-04-17T09:49:36.455Z,18.24
2023-04-17T09:52:05.977Z,18.59
2023-04-17T09:54:37.687Z,18.84
2023-04-17T09:57:08.859Z,18.63
2023-04-17T09:59:39.709Z,18.88
2023-04-17T10:02:09.465Z,19.08
2023-04-17T10:04:42.105Z,18.79
2023-04-17T10:07:13.085Z,18.86
2023-04-17T10:09:42.745Z,19.46
2023-04-17T10:12:17.685Z,19.87
2023-04-17T10:14:49.616Z,20.46
2023-04-17T10:17:28.549Z,20.55
2023-04-17T10:20:33.537Z,20.37
2023-04-17T10:23:32.390Z,20.81
2023-04-17T10:26:34.695Z,20.74
2023-04-17T10:29:02.610Z,21.06
2023-04-17T10:32:16.047Z,21.23
2023-04-17T10:34:44.232Z,21.68
2023-04-17T10:37:15.937Z,21.61
2023-04-17T10:40:00.769Z,21.80
2023-04-17T10:42:30.320Z,21.30
2023-04-17T10:45:01.755Z,20.81
2023-04-17T10:47:34.371Z,20.91
2023-04-17T10:50:07.507Z,21.13
2023-04-17T10:52:42.953Z,21.28
2023-04-17T10:55:16.307Z,21.43
2023-04-17T10:57:58.015Z,21.89
2023-04-17T11:00:37.001Z,22.12
2023-04-17T11:03:06.936Z,22.03
2023-04-17T11:05:35.678Z,21.72
2023-04-17T11:08:06.545Z,21.51
2023-04-17T11:10:37.109Z,21.67
2023-04-17T11:13:05.299Z,21.82
2023-04-17T11:15:35.195Z,21.73
2023-04-17T11:18:03.972Z,22.18
2023-04-17T11:20:36.870Z,22.53
2023-04-17T11:23:07.240Z,22.37
2023-04-17T11:25:35.470Z,22.26
2023-04-17T11:28:06.497Z,21.94
2023-04-17T11:30:36.846Z,21.92
2023-04-17T11:33:07.885Z,22.21
2023-04-17T11:35:38.348Z,22.06
2023-04-17T11:38:14.361Z,22.44
2023-04-17T11:40:44.879Z,22.63
2023-04-17T11:43:13.632Z,22.98
2023-04-17T11:45:46.401Z,22.77
2023-04-17T11:48:16.817Z,22.85
2023-04-17T11:50:44.769Z,22.43
2023-04-17T11:53:16.343Z,23.12
2023-04-17T11:55:45.805Z,23.49
2023-04-17T11:58:14.506Z,23.95
2023-04-17T12:00:43.480Z,23.71
2023-04-17T12:03:33.500Z,23.33
2023-04-17T12:06:03.513Z,23.26
2023-04-17T12:08:44.218Z,23.03
2023-04-17T12:11:26.285Z,23.42
2023-04-17T12:13:55.608Z,23.36
2023-04-17T12:16:25.291Z,23.99
2023-04-17T12:18:53.868Z,23.80
2023-04-17T12:21:23.666Z,23.95
2023-04-17T12:23:52.839Z,23.49
2023-04-17T12:26:21.075Z,23.12
2023-04-17T12:28:48.881Z,22.96
2023-04-17T12:31:16.851Z,23.11
2023-04-17T12:33:44.753Z,22.83
2023-04-17T12:36:12.558Z,22.95
2023-04-17T12:38:42.931Z,23.15
2023-04-17T12:41:12.066Z,23.31
2023-04-17T12:43:39.797Z,23.48
2023-04-17T12:46:07.728Z,24.06
2023-04-17T12:48:35.657Z,24.32
2023-04-17T12:51:03.660Z,23.90
2023-04-17T12:53:31.623Z,24.94
2023-04-17T12:55:59.509Z,24.49
2023-04-17T12:58:28.732Z,23.62
2023-04-17T13:00:56.613Z,23.53
2023-04-17T13:03:24.580Z,23.52
2023-04-17T13:05:53.233Z,24.10
2023-04-17T13:08:21.386Z,24.04
2023-04-17T13:10:49.173Z,24.11
2023-04-17T13:13:16.943Z,24.60
2023-04-17T13:15:47.347Z,24.48
2023-04-17T13:18:15.700Z,24.34
2023-04-17T13:20:43.756Z,24.60
2023-04-17T13:23:11.893Z,24.22
2023-04-17T13:25:39.781Z,24.43
2023-04-17T13:28:07.609Z,24.33
2023-04-17T13:30:37.182Z,24.88
2023-04-17T13:33:06.643Z,24.30
2023-04-17T13:35:34.578Z,24.10
2023-04-17T13:38:03.445Z,23.48
2023-04-17T13:40:31.467Z,22.81
2023-04-17T13:43:00.278Z,21.99
2023-04-17T13:45:28.122Z,21.92
2023-04-17T13:47:56.071Z,21.30
2023-04-17T13:50:25.298Z,21.27
2023-04-17T13:52:53.078Z,21.95
2023-04-17T13:55:20.936Z,22.63
2023-04-17T13:57:48.836Z,23.11
2023-04-17T14:00:18.275Z,23.24
2023-04-17T14:02:46.335Z,23.96
2023-04-17T14:05:14.560Z,24.37
2023-04-17T14:07:44.265Z,24.55
2023-04-17T14:10:12.251Z,23.71
2023-04-17T14:12:40.046Z,23.25
2023-04-17T14:15:09.361Z,22.66
2023-04-17T14:17:41.143Z,22.31
2023-04-17T14:20:10.461Z,22.39
2023-04-17T14:22:38.227Z,22.37
2023-04-17T14:25:08.433Z,22.78
2023-04-17T14:27:36.292Z,23.01
2023-04-17T14:30:05.745Z,22.77
2023-04-17T14:32:33.750Z,22.65
2023-04-17T14:35:01.676Z,22.59
2023-04-17T14:37:29.555Z,22.90
2023-04-17T14:39:57.532Z,23.35
2023-04-17T14:42:26.757Z,23.36
2023-04-17T14:44:54.602Z,23.02
2023-04-17T14:47:22.519Z,23.39
2023-04-17T14:49:50.964Z,23.48
2023-04-17T14:52:18.719Z,23.61
2023-04-17T14:54:46.568Z,23.69
2023-04-17T14:57:14.377Z,23.46
2023-04-17T14:59:44.371Z,23.08
2023-04-17T15:02:12.542Z,22.90
2023-04-17T15:04:42.201Z,22.50
2023-04-17T15:07:10.087Z,22.00
2023-04-17T15:09:37.868Z,22.14
2023-04-17T15:12:06.098Z,22.24
2023-04-17T15:14:34.006Z,22.03
2023-04-17T15:17:06.778Z,22.16
2023-04-17T15:19:34.888Z,22.18
2023-04-17T15:22:02.696Z,22.44
2023-04-17T15:24:31.623Z,22.70
2023-04-17T15:26:59.516Z,22.63
2023-04-17T15:29:27.295Z,22.23
2023-04-17T15:31:55.148Z,21.86
2023-04-17T15:34:24.950Z,22.08
2023-04-17T15:36:52.816Z,21.89
2023-04-17T15:39:20.570Z,21.76
2023-04-17T15:41:48.693Z,21.68
2023-04-17T15:44:16.591Z,21.51
2023-04-17T15:46:44.487Z,21.21
2023-04-17T15:49:12.598Z,21.20
2023-04-17T15:51:41.821Z,20.57
2023-04-17T15:54:11.896Z,20.65
2023-04-17T15:56:40.568Z,20.84
2023-04-17T15:59:08.397Z,20.21
2023-04-17T16:01:36.261Z,20.08
2023-04-17T16:04:04.422Z,19.97
2023-04-17T16:06:32.317Z,19.59
2023-04-17T16:09:03.457Z,19.86
2023-04-17T16:11:31.435Z,19.99
2023-04-17T16:13:59.192Z,20.40
2023-04-17T16:16:29.275Z,20.36
2023-04-17T16:18:57.715Z,20.45
2023-04-17T16:21:26.679Z,20.39
2023-04-17T16:23:54.397Z,20.46
2023-04-17T16:26:23.668Z,20.66
2023-04-17T16:28:51.460Z,20.42
2023-04-17T16:31:21.092Z,20.47
2023-04-17T16:33:48.958Z,20.16
2023-04-17T16:36:16.682Z,20.29
2023-04-17T16:38:45.357Z,20.26
2023-04-17T16:41:13.107Z,20.35
2023-04-17T16:43:42.536Z,19.97
2023-04-17T16:46:22.167Z,19.93
2023-04-17T16:48:52.770Z,19.87
2023-04-17T16:51:23.574Z,19.80
2023-04-17T16:53:51.501Z,19.70
2023-04-17T16:56:19.375Z,19.64
2023-04-17T16:58:48.613Z,19.53
2023-04-17T17:01:16.488Z,19.48
2023-04-17T17:03:44.959Z,19.67
2023-04-17T17:06:13.096Z,19.65
2023-04-17T17:08:44.718Z,19.47
2023-04-17T17:11:13.105Z,19.53
2023-04-17T17:13:40.856Z,19.62
2023-04-17T17:16:10.157Z,19.62
2023-04-17T17:18:37.950Z,19.41
2023-04-17T17:21:06.961Z,19.36
2023-04-17T17:23:35.486Z,19.35
2023-04-17T17:26:03.484Z,19.36
2023-04-17T17:28:31.339Z,19.16
2023-04-17T17:31:00.720Z,19.09
2023-04-17T17:33:32.004Z,19.07
2023-04-17T17:36:00.853Z,18.94
2023-04-17T17:38:29.026Z,18.86
2023-04-17T17:40:56.746Z,18.39
2023-04-17T17:43:24.839Z,18.26
2023-04-17T17:45:52.777Z,17.92
2023-04-17T17:48:20.693Z,18.00
2023-04-17T17:50:54.333Z,17.92
2023-04-17T17:53:26.388Z,17.74
2023-04-17T17:55:56.592Z,17.57
2023-04-17T17:58:24.770Z,17.51
2023-04-17T18:00:52.608Z,17.27
2023-04-17T18:03:21.041Z,17.24
2023-04-17T18:05:50.614Z,17.20
2023-04-17T18:08:19.156Z,17.12
2023-04-17T18:10:46.974Z,17.04
2023-04-17T18:13:14.711Z,17.07
2023-04-17T18:15:42.483Z,17.01
2023-04-17T18:18:10.556Z,16.95
2023-04-17T18:20:39.460Z,16.74
2023-04-17T18:23:08.607Z,16.77
2023-04-17T18:25:36.595Z,16.71
2023-04-17T18:28:04.755Z,16.65
2023-04-17T18:30:32.880Z,16.47
2023-04-17T18:33:00.806Z,16.37
2023-04-17T18:35:28.652Z,16.28
2023-04-17T18:37:56.617Z,16.10
2023-04-17T18:40:25.854Z,16.10
2023-04-17T18:42:53.646Z,15.96
2023-04-17T18:45:21.559Z,15.88
2023-04-17T18:47:49.354Z,15.82
2023-04-17T18:50:17.397Z,15.76
2023-04-17T18:52:49.464Z,15.67
2023-04-17T18:55:19.743Z,15.55
2023-04-17T18:57:48.879Z,15.54
2023-04-17T19:00:16.977Z,15.51
2023-04-17T19:02:44.966Z,15.38
2023-04-17T19:05:13.028Z,15.36
2023-04-17T19:07:40.965Z,15.31
2023-04-17T19:10:10.380Z,15.07
2023-04-17T19:12:38.327Z,15.06
2023-04-17T19:15:10.400Z,14.99
2023-04-17T19:17:38.416Z,14.83
2023-04-17T19:20:08.978Z,14.77
2023-04-17T19:22:36.811Z,14.64
2023-04-17T19:25:05.190Z,14.60
2023-04-17T19:27:33.176Z,14.49
2023-04-17T19:30:00.928Z,14.42
2023-04-17T19:32:31.699Z,14.39
2023-04-17T19:34:59.639Z,14.25
2023-04-17T19:37:27.544Z,14.13
2023-04-17T19:39:56.874Z,14.15
2023-04-17T19:42:24.806Z,14.06
2023-04-17T19:44:52.769Z,14.00
2023-04-17T19:47:20.662Z,13.84
2023-04-17T19:49:49.780Z,13.79
2023-04-17T19:52:17.667Z,13.79
2023-04-17T19:54:46.199Z,13.63
2023-04-17T19:57:14.586Z,13.64
2023-04-17T19:59:42.531Z,13.60
2023-04-17T20:02:11.507Z,13.59
2023-04-17T20:04:39.382Z,13.54
2023-04-17T20:07:08.504Z,13.41
2023-04-17T20:09:36.402Z,13.35
2023-04-17T20:12:05.607Z,13.34
2023-04-17T20:14:33.392Z,13.25
2023-04-17T20:17:01.277Z,13.20
2023-04-17T20:19:29.060Z,13.05
2023-04-17T20:21:56.864Z,13.08
2023-04-17T20:24:25.963Z,13.04
2023-04-17T20:26:53.800Z,13.06
2023-04-17T20:29:22.604Z,13.13
2023-04-17T20:31:50.630Z,13.07
2023-04-17T20:34:18.453Z,13.12
2023-04-17T20:36:46.394Z,12.91
2023-04-17T20:39:14.667Z,12.86
2023-04-17T20:41:43.940Z,12.81
2023-04-17T20:44:11.835Z,12.75
2023-04-17T20:46:39.858Z,12.64
2023-04-17T20:49:07.733Z,12.53
2023-04-17T20:51:35.583Z,12.50
2023-04-17T20:54:03.601Z,12.45
2023-04-17T20:56:31.333Z,12.46
2023-04-17T20:59:00.789Z,12.32
2023-04-17T21:01:28.678Z,12.23
2023-04-17T21:03:56.610Z,12.15
2023-04-17T21:06:24.547Z,12.12
2023-04-17T21:08:52.391Z,12.01
2023-04-17T21:11:21.372Z,11.97
2023-04-17T21:13:49.252Z,11.94
2023-04-17T21:16:18.374Z,11.78
2023-04-17T21:18:46.242Z,11.68
2023-04-17T21:21:14.090Z,11.63
2023-04-17T21:23:41.884Z,11.59
2023-04-17T21:26:09.639Z,11.59
2023-04-17T21:28:37.794Z,11.53
2023-04-17T21:31:10.023Z,11.36
2023-04-17T21:33:39.237Z,11.31
2023-04-17T21:36:07.195Z,11.35
2023-04-17T21:38:35.053Z,11.25
2023-04-17T21:41:03.060Z,11.31
2023-04-17T21:43:31.538Z,11.20
2023-04-17T21:45:59.296Z,11.22
2023-04-17T21:48:27.439Z,11.15
2023-04-17T21:51:03.391Z,11.04
2023-04-17T21:53:31.809Z,11.00
2023-04-17T21:55:59.643Z,10.94
2023-04-17T21:58:27.740Z,10.85
2023-04-17T22:00:55.712Z,10.83
2023-04-17T22:03:23.579Z,10.87
2023-04-17T22:05:53.631Z,10.78
2023-04-17T22:08:22.887Z,10.68
2023-04-17T22:10:52.207Z,10.64
2023-04-17T22:13:20.129Z,10.56
2023-04-17T22:15:49.202Z,10.46
2023-04-17T22:18:17.081Z,10.46
2023-04-17T22:20:44.969Z,10.49
2023-04-17T22:23:12.777Z,10.45
2023-04-17T22:25:41.834Z,10.42
2023-04-17T22:28:09.683Z,10.38
2023-04-17T22:30:37.509Z,10.26
2023-04-17T22:33:05.558Z,10.29
2023-04-17T22:35:33.681Z,10.15
2023-04-17T22:38:01.434Z,10.16
2023-04-17T22:40:30.073Z,10.06
2023-04-17T22:42:59.288Z,9.97
2023-04-17T22:45:27.026Z,10.02
2023-04-17T22:47:54.865Z,10.02
2023-04-17T22:50:23.739Z,9.90
2023-04-17T22:52:51.513Z,9.90
2023-04-17T22:55:19.314Z,9.92
2023-04-17T22:57:47.290Z,9.79
2023-04-17T23:00:19.928Z,9.80
2023-04-17T23:02:48.111Z,9.75
2023-04-17T23:05:16.138Z,9.67
2023-04-17T23:07:43.983Z,9.62
2023-04-17T23:10:11.693Z,9.58
2023-04-17T23:12:39.713Z,9.47
2023-04-17T23:15:09.530Z,9.55
2023-04-17T23:17:38.765Z,9.42
2023-04-17T23:20:07.880Z,9.40
2023-04-17T23:22:35.802Z,9.40
2023-04-17T23:25:03.957Z,9.29
2023-04-17T23:27:32.022Z,9.22
2023-04-17T23:29:59.758Z,9.25
2023-04-17T23:32:27.704Z,9.28
2023-04-17T23:34:56.963Z,9.27
2023-04-17T23:37:25.005Z,9.27
2023-04-17T23:39:52.854Z,9.22
2023-04-17T23:42:21.042Z,9.24
2023-04-17T23:44:48.894Z,9.21
2023-04-17T23:47:16.752Z,9.23
2023-04-17T23:49:44.677Z,9.20
2023-04-17T23:52:13.810Z,9.16
2023-04-17T23:54:42.154Z,9.12
2023-04-17T23:57:09.917Z,9.08
2023-04-17T23:59:37.761Z,9.05
